createdAt,value
2018-07-17T00:01:03.737Z,99.90
2018-07-17T00:03:31.905Z,99.90
2018-07-17T00:06:00.081Z,99.90
2018-07-17T00:08:28.252Z,99.90
2018-07-17T00:10:56.431Z,99.90
2018-07-17T00:13:24.609Z,99.90
2018-07-17T00:15:52.795Z,99.90
2018-07-17T00:18:20.976Z,99.90
2018-07-17T00:20:49.157Z,99.90
2018-07-17T00:23:17.337Z,99.90
2018-07-17T00:25:45.527Z,99.90
2018-07-17T00:28:13.705Z,99.90
2018-07-17T00:30:41.884Z,99.90
2018-07-17T00:33:10.084Z,99.90
2018-07-17T00:35:38.269Z,99.90
2018-07-17T00:38:06.455Z,99.90
2018-07-17T00:40:34.650Z,99.90
2018-07-17T00:43:02.823Z,99.90
2018-07-17T00:45:30.988Z,99.90
2018-07-17T00:47:59.185Z,99.90
2018-07-17T00:50:27.369Z,99.90
2018-07-17T00:52:55.570Z,99.90
2018-07-17T00:55:23.750Z,99.90
2018-07-17T00:57:51.916Z,99.90
2018-07-17T01:00:20.097Z,99.90
2018-07-17T01:02:53.619Z,99.90
2018-07-17T01:05:27.261Z,99.90
2018-07-17T01:08:00.878Z,99.90
2018-07-17T01:10:34.598Z,99.90
2018-07-17T01:13:02.024Z,99.90
2018-07-17T01:15:37.275Z,99.90
2018-07-17T01:18:05.437Z,99.90
2018-07-17T01:20:33.641Z,99.90
2018-07-17T01:23:01.817Z,99.90
2018-07-17T01:25:29.996Z,99.90
2018-07-17T01:27:58.170Z,99.90
2018-07-17T01:30:26.372Z,99.90
2018-07-17T01:32:54.576Z,99.90
2018-07-17T01:35:22.752Z,99.90
2018-07-17T01:37:50.920Z,99.90
2018-07-17T01:40:19.129Z,99.90
2018-07-17T01:42:47.288Z,99.90
2018-07-17T01:45:15.549Z,99.90
2018-07-17T01:47:43.725Z,99.90
2018-07-17T01:50:11.906Z,99.90
2018-07-17T01:52:40.093Z,99.90
2018-07-17T01:55:08.265Z,99.90
2018-07-17T01:57:36.468Z,99.90
2018-07-17T02:00:05.028Z,99.90
2018-07-17T02:02:33.201Z,99.90
2018-07-17T02:05:01.378Z,99.90
2018-07-17T02:07:29.549Z,99.90
2018-07-17T02:09:57.729Z,99.90
2018-07-17T02:12:25.904Z,99.90
2018-07-17T02:14:54.107Z,99.90
2018-07-17T02:17:22.256Z,99.90
2018-07-17T02:19:50.433Z,99.90
2018-07-17T02:22:18.823Z,99.90
2018-07-17T02:24:47.012Z,99.90
2018-07-17T02:27:16.321Z,99.90
2018-07-17T02:29:45.880Z,99.90
2018-07-17T02:32:14.164Z,99.90
2018-07-17T02:34:42.392Z,99.90
2018-07-17T02:39:38.534Z,99.90
2018-07-17T02:42:06.986Z,99.90
2018-07-17T02:44:35.153Z,99.90
2018-07-17T02:47:03.316Z,99.90
2018-07-17T02:49:31.779Z,99.90
2018-07-17T02:51:59.957Z,99.90
2018-07-17T02:54:28.145Z,99.90
2018-07-17T02:56:56.321Z,99.90
2018-07-17T02:59:24.503Z,99.90
2018-07-17T03:01:52.677Z,99.90
2018-07-17T03:04:20.849Z,99.90
2018-07-17T03:06:49.036Z,99.90
2018-07-17T03:09:17.219Z,99.90
2018-07-17T03:11:45.469Z,99.90
2018-07-17T03:14:13.637Z,99.90
2018-07-17T03:16:41.815Z,99.90
2018-07-17T03:19:09.993Z,99.90
2018-07-17T03:21:38.183Z,99.90
2018-07-17T03:24:06.397Z,99.90
2018-07-17T03:26:34.591Z,99.90
2018-07-17T03:29:02.804Z,99.90
2018-07-17T03:31:31.014Z,99.90
2018-07-17T03:33:59.214Z,99.90
2018-07-17T03:36:27.418Z,99.90
2018-07-17T03:38:55.622Z,99.90
2018-07-17T03:41:23.809Z,99.90
2018-07-17T03:43:52.014Z,99.90
2018-07-17T03:46:20.194Z,99.90
2018-07-17T03:51:16.461Z,99.90
2018-07-17T03:53:44.657Z,99.90
2018-07-17T03:56:12.852Z,99.90
2018-07-17T03:58:41.065Z,99.90
2018-07-17T04:01:09.260Z,99.90
2018-07-17T04:03:37.444Z,99.90
2018-07-17T04:06:05.662Z,99.90
2018-07-17T04:08:33.901Z,99.90
2018-07-17T04:11:02.105Z,99.90
2018-07-17T04:13:30.316Z,99.90
2018-07-17T04:15:58.518Z,99.90
2018-07-17T04:20:54.725Z,99.90
2018-07-17T04:23:22.915Z,99.90
2018-07-17T04:25:51.098Z,99.90
2018-07-17T04:28:19.289Z,99.90
2018-07-17T04:30:47.479Z,99.90
2018-07-17T04:33:15.673Z,99.90
2018-07-17T04:35:43.856Z,99.90
2018-07-17T04:38:12.045Z,99.90
2018-07-17T04:40:40.228Z,99.90
2018-07-17T04:43:08.409Z,99.90
2018-07-17T04:45:36.613Z,99.90
2018-07-17T04:48:04.860Z,99.90
2018-07-17T04:50:33.039Z,99.90
2018-07-17T04:53:02.240Z,99.90
2018-07-17T04:55:30.439Z,99.90
2018-07-17T04:57:58.665Z,99.90
2018-07-17T05:00:26.856Z,99.90
2018-07-17T05:02:55.049Z,99.90
2018-07-17T05:05:23.245Z,99.90
2018-07-17T05:07:51.532Z,99.90
2018-07-17T05:10:19.730Z,99.90
2018-07-17T05:12:47.927Z,99.90
2018-07-17T05:15:16.111Z,99.90
2018-07-17T05:17:44.306Z,99.90
2018-07-17T05:20:12.522Z,99.90
2018-07-17T05:22:40.707Z,99.90
2018-07-17T05:25:09.150Z,99.90
2018-07-17T05:27:37.329Z,99.90
2018-07-17T05:30:05.998Z,99.90
2018-07-17T05:32:34.300Z,99.90
2018-07-17T05:35:02.504Z,99.90
2018-07-17T05:37:30.669Z,99.90
2018-07-17T05:39:58.849Z,99.90
2018-07-17T05:42:27.033Z,99.90
2018-07-17T05:44:55.216Z,99.90
2018-07-17T05:47:23.394Z,98.70
2018-07-17T05:49:51.562Z,95.10
2018-07-17T05:52:19.741Z,92.60
2018-07-17T05:54:47.929Z,90.70
2018-07-17T05:57:16.092Z,90.50
2018-07-17T05:59:44.322Z,90.20
2018-07-17T06:02:12.940Z,89.50
2018-07-17T06:04:41.189Z,89.90
2018-07-17T06:07:09.361Z,89.40
2018-07-17T06:09:37.639Z,90.60
2018-07-17T06:12:05.853Z,91.10
2018-07-17T06:14:34.035Z,92.30
2018-07-17T06:17:02.212Z,93.50
2018-07-17T06:19:30.413Z,94.70
2018-07-17T06:21:58.659Z,95.00
2018-07-17T06:24:27.517Z,95.00
2018-07-17T06:26:55.785Z,96.00
2018-07-17T06:29:23.945Z,96.00
2018-07-17T06:31:52.128Z,96.50
2018-07-17T06:34:20.412Z,96.40
2018-07-17T06:36:48.592Z,96.50
2018-07-17T06:39:16.779Z,96.30
2018-07-17T06:41:45.039Z,97.00
2018-07-17T06:44:13.218Z,96.60
2018-07-17T06:46:41.406Z,96.20
2018-07-17T06:49:09.579Z,96.50
2018-07-17T06:51:37.740Z,95.80
2018-07-17T06:54:05.931Z,96.20
2018-07-17T06:56:34.105Z,96.80
2018-07-17T06:59:02.290Z,96.30
2018-07-17T07:01:30.472Z,96.20
2018-07-17T07:03:58.652Z,95.90
2018-07-17T07:06:26.829Z,96.20
2018-07-17T07:08:54.996Z,96.00
2018-07-17T07:11:23.175Z,96.00
2018-07-17T07:13:51.347Z,95.40
2018-07-17T07:16:19.665Z,95.80
2018-07-17T07:18:47.841Z,94.20
2018-07-17T07:21:16.007Z,94.30
2018-07-17T07:23:44.218Z,93.30
2018-07-17T07:26:12.494Z,93.90
2018-07-17T07:28:40.775Z,92.90
2018-07-17T07:31:08.941Z,92.70
2018-07-17T07:33:37.244Z,92.40
2018-07-17T07:36:06.057Z,92.20
2018-07-17T07:38:34.229Z,91.70
2018-07-17T07:41:02.889Z,91.70
2018-07-17T07:43:31.073Z,91.00
2018-07-17T07:45:59.349Z,90.30
2018-07-17T07:48:27.537Z,90.30
2018-07-17T07:50:55.709Z,89.20
2018-07-17T07:53:23.884Z,88.30
2018-07-17T07:55:52.093Z,88.80
2018-07-17T07:58:20.289Z,87.70
2018-07-17T08:00:48.464Z,86.90
2018-07-17T08:03:16.646Z,85.40
2018-07-17T08:05:44.828Z,85.30
2018-07-17T08:08:13.009Z,84.50
2018-07-17T08:10:41.196Z,85.90
2018-07-17T08:13:09.364Z,86.40
2018-07-17T08:15:37.544Z,84.20
2018-07-17T08:18:05.714Z,84.10
2018-07-17T08:20:33.904Z,84.00
2018-07-17T08:23:02.084Z,82.80
2018-07-17T08:25:30.253Z,82.20
2018-07-17T08:27:58.424Z,81.00
2018-07-17T08:30:26.606Z,82.30
2018-07-17T08:32:55.030Z,81.00
2018-07-17T08:35:23.205Z,81.00
2018-07-17T08:37:51.431Z,81.00
2018-07-17T08:40:19.679Z,81.10
2018-07-17T08:42:47.867Z,81.60
2018-07-17T08:45:16.093Z,80.50
2018-07-17T08:47:44.272Z,78.90
2018-07-17T08:50:12.468Z,77.20
2018-07-17T08:52:40.644Z,77.80
2018-07-17T08:55:08.824Z,78.20
2018-07-17T08:57:37.019Z,76.30
2018-07-17T09:00:05.753Z,75.70
2018-07-17T09:02:33.925Z,75.20
2018-07-17T09:05:02.098Z,76.60
2018-07-17T09:07:30.272Z,76.60
2018-07-17T09:09:58.445Z,77.70
2018-07-17T09:12:26.632Z,77.40
2018-07-17T09:14:55.129Z,75.10
2018-07-17T09:17:23.301Z,73.50
2018-07-17T09:19:51.496Z,71.90
2018-07-17T09:22:19.679Z,69.50
2018-07-17T09:24:47.857Z,69.30
2018-07-17T09:27:16.033Z,68.80
2018-07-17T09:29:44.210Z,68.60
2018-07-17T09:32:12.405Z,65.90
2018-07-17T09:34:40.631Z,65.60
2018-07-17T09:37:08.821Z,66.10
2018-07-17T09:39:37.009Z,65.90
2018-07-17T09:42:05.200Z,67.60
2018-07-17T09:44:33.374Z,65.80
2018-07-17T09:47:01.545Z,65.90
2018-07-17T09:49:29.738Z,65.50
2018-07-17T09:51:57.920Z,62.90
2018-07-17T09:54:26.183Z,59.70
2018-07-17T09:56:54.280Z,60.20
2018-07-17T09:59:22.506Z,59.70
2018-07-17T10:01:56.107Z,61.90
2018-07-17T10:04:24.288Z,59.90
2018-07-17T10:06:52.465Z,62.80
2018-07-17T10:09:20.712Z,62.70
2018-07-17T10:11:48.858Z,61.50
2018-07-17T10:14:17.049Z,59.70
2018-07-17T10:16:45.257Z,59.10
2018-07-17T10:19:13.469Z,57.70
2018-07-17T10:21:41.646Z,56.50
2018-07-17T10:24:09.848Z,57.20
2018-07-17T10:26:38.120Z,56.10
2018-07-17T10:29:06.288Z,56.40
2018-07-17T10:31:34.489Z,57.10
2018-07-17T10:34:02.682Z,57.50
2018-07-17T10:36:30.889Z,56.20
2018-07-17T10:38:59.079Z,55.70
2018-07-17T10:41:27.261Z,55.80
2018-07-17T10:43:55.463Z,55.30
2018-07-17T10:46:23.706Z,53.40
2018-07-17T10:48:51.917Z,54.40
2018-07-17T10:53:48.101Z,53.90
2018-07-17T10:56:16.339Z,51.40
2018-07-17T11:00:08.775Z,53.90
2018-07-17T11:02:37.036Z,54.40
2018-07-17T11:05:05.236Z,54.50
2018-07-17T11:07:33.547Z,53.60
2018-07-17T11:10:01.825Z,52.90
2018-07-17T11:12:30.011Z,52.30
2018-07-17T11:14:58.193Z,50.80
2018-07-17T11:17:26.382Z,46.20
2018-07-17T11:19:54.589Z,47.70
2018-07-17T11:22:22.765Z,46.70
2018-07-17T11:27:18.913Z,47.60
2018-07-17T11:29:47.088Z,48.00
2018-07-17T11:32:15.283Z,49.30
2018-07-17T11:34:43.476Z,48.80
2018-07-17T11:37:11.710Z,48.80
2018-07-17T11:39:39.885Z,50.30
2018-07-17T11:42:08.063Z,50.00
2018-07-17T11:44:36.260Z,49.80
2018-07-17T11:47:04.545Z,49.00
2018-07-17T11:49:32.733Z,48.40
2018-07-17T11:52:00.908Z,43.40
2018-07-17T11:54:29.098Z,44.80
2018-07-17T11:58:21.509Z,45.80
2018-07-17T12:00:49.692Z,45.50
2018-07-17T12:03:17.882Z,46.10
2018-07-17T12:05:46.094Z,46.60
2018-07-17T12:08:14.261Z,45.90
2018-07-17T12:10:42.457Z,44.70
2018-07-17T12:13:10.660Z,46.00
2018-07-17T12:15:38.844Z,46.40
2018-07-17T12:18:07.043Z,45.90
2018-07-17T12:20:35.369Z,45.50
2018-07-17T12:23:03.405Z,46.50
2018-07-17T12:25:31.593Z,45.10
2018-07-17T12:27:59.794Z,45.40
2018-07-17T12:30:27.965Z,45.30
2018-07-17T12:32:56.144Z,45.10
2018-07-17T12:35:24.326Z,45.70
2018-07-17T12:37:52.522Z,47.70
2018-07-17T12:40:20.705Z,49.50
2018-07-17T12:42:48.896Z,50.90
2018-07-17T12:45:17.152Z,50.50
2018-07-17T12:47:45.349Z,49.20
2018-07-17T12:50:13.533Z,49.80
2018-07-17T12:52:41.708Z,51.10
2018-07-17T12:55:09.897Z,51.40
2018-07-17T12:57:38.073Z,51.40
2018-07-17T13:00:06.572Z,53.40
2018-07-17T13:02:34.870Z,54.60
2018-07-17T13:05:03.062Z,55.60
2018-07-17T13:07:31.273Z,56.60
2018-07-17T13:09:59.463Z,57.20
2018-07-17T13:12:27.641Z,58.20
2018-07-17T13:14:55.834Z,57.90
2018-07-17T13:17:24.021Z,58.40
2018-07-17T13:19:52.188Z,59.00
2018-07-17T13:22:20.382Z,60.00
2018-07-17T13:24:48.560Z,57.20
2018-07-17T13:27:16.840Z,57.50
2018-07-17T13:29:45.018Z,54.00
2018-07-17T13:32:13.205Z,53.00
2018-07-17T13:34:41.373Z,54.50
2018-07-17T13:37:09.564Z,54.10
2018-07-17T13:39:37.753Z,54.10
2018-07-17T13:42:05.942Z,52.80
2018-07-17T13:44:34.134Z,54.30
2018-07-17T13:47:02.342Z,54.10
2018-07-17T13:49:30.525Z,54.50
2018-07-17T13:51:58.740Z,54.90
2018-07-17T13:54:26.919Z,55.60
2018-07-17T13:56:55.108Z,55.80
2018-07-17T13:59:23.321Z,57.60
2018-07-17T14:01:51.521Z,58.00
2018-07-17T14:04:19.715Z,58.50
2018-07-17T14:06:48.007Z,59.00
2018-07-17T14:09:16.217Z,59.30
2018-07-17T14:11:44.411Z,58.30
2018-07-17T14:14:12.599Z,57.90
2018-07-17T14:16:40.802Z,59.20
2018-07-17T14:19:08.991Z,59.60
2018-07-17T14:21:37.153Z,57.90
2018-07-17T14:24:05.432Z,57.50
2018-07-17T14:26:33.649Z,57.70
2018-07-17T14:29:01.826Z,58.90
2018-07-17T14:31:30.923Z,59.20
2018-07-17T14:33:59.116Z,60.70
2018-07-17T14:36:27.296Z,61.90
2018-07-17T14:38:55.518Z,63.20
2018-07-17T14:41:23.759Z,64.30
2018-07-17T14:43:51.957Z,66.30
2018-07-17T14:46:20.130Z,65.30
2018-07-17T14:48:48.312Z,65.60
2018-07-17T14:51:16.521Z,66.00
2018-07-17T14:53:44.704Z,66.70
2018-07-17T14:56:12.893Z,66.90
2018-07-17T14:58:41.065Z,66.80
2018-07-17T15:01:09.264Z,68.20
2018-07-17T15:03:37.451Z,68.90
2018-07-17T15:06:05.635Z,69.90
2018-07-17T15:08:33.807Z,69.80
2018-07-17T15:11:01.989Z,70.00
2018-07-17T15:13:30.169Z,70.80
2018-07-17T15:15:58.479Z,76.30
2018-07-17T15:18:26.554Z,81.90
2018-07-17T15:20:54.732Z,88.50
2018-07-17T15:23:22.909Z,91.10
2018-07-17T15:25:51.090Z,93.50
2018-07-17T15:28:19.357Z,94.50
2018-07-17T15:30:47.551Z,96.60
2018-07-17T15:33:15.730Z,98.60
2018-07-17T15:35:43.910Z,99.90
2018-07-17T15:38:12.103Z,99.90
2018-07-17T15:40:40.281Z,99.90
2018-07-17T15:43:08.471Z,99.90
2018-07-17T15:45:36.655Z,99.90
2018-07-17T15:48:04.855Z,99.90
2018-07-17T15:50:33.041Z,99.90
2018-07-17T15:53:01.297Z,99.90
2018-07-17T15:55:29.481Z,99.70
2018-07-17T15:57:57.677Z,99.70
2018-07-17T16:00:25.857Z,98.80
2018-07-17T16:02:54.042Z,97.80
2018-07-17T16:05:22.210Z,96.50
2018-07-17T16:07:50.394Z,94.70
2018-07-17T16:10:18.564Z,94.90
2018-07-17T16:12:47.021Z,95.20
2018-07-17T16:15:15.188Z,94.60
2018-07-17T16:17:43.381Z,94.00
2018-07-17T16:20:11.621Z,92.80
2018-07-17T16:22:39.765Z,91.50
2018-07-17T16:25:07.954Z,90.70
2018-07-17T16:27:36.137Z,91.10
2018-07-17T16:30:06.025Z,91.90
2018-07-17T16:32:34.209Z,92.30
2018-07-17T16:35:02.428Z,92.40
2018-07-17T16:37:30.598Z,92.20
2018-07-17T16:39:58.778Z,92.30
2018-07-17T16:42:26.961Z,92.80
2018-07-17T16:44:55.163Z,92.70
2018-07-17T16:47:23.993Z,92.30
2018-07-17T16:52:20.152Z,91.80
2018-07-17T16:54:48.324Z,91.20
2018-07-17T16:57:16.500Z,90.60
2018-07-17T16:59:44.681Z,90.50
2018-07-17T17:02:13.975Z,90.80
2018-07-17T17:04:42.165Z,90.20
2018-07-17T17:07:10.372Z,87.80
2018-07-17T17:09:39.572Z,88.20
2018-07-17T17:12:08.051Z,88.30
2018-07-17T17:14:36.248Z,88.30
2018-07-17T17:17:04.438Z,88.90
2018-07-17T17:19:32.633Z,89.10
2018-07-17T17:22:00.847Z,90.10
2018-07-17T17:24:29.214Z,89.40
2018-07-17T17:26:57.262Z,90.50
2018-07-17T17:29:25.698Z,90.40
2018-07-17T17:31:53.813Z,90.90
2018-07-17T17:34:21.997Z,90.90
2018-07-17T17:36:50.203Z,90.60
2018-07-17T17:39:18.359Z,90.20
2018-07-17T17:41:46.586Z,90.10
2018-07-17T17:44:14.754Z,89.40
2018-07-17T17:46:42.920Z,90.20
2018-07-17T17:49:11.116Z,90.80
2018-07-17T17:51:39.327Z,91.60
2018-07-17T17:54:07.457Z,91.90
2018-07-17T17:56:35.673Z,93.60
2018-07-17T17:59:03.852Z,95.60
2018-07-17T18:01:32.027Z,97.80
2018-07-17T18:04:00.307Z,99.50
2018-07-17T18:06:29.303Z,99.90
2018-07-17T18:08:57.488Z,99.90
2018-07-17T18:11:25.954Z,99.90
2018-07-17T18:13:54.144Z,99.90
2018-07-17T18:16:22.330Z,99.90
2018-07-17T18:18:50.585Z,99.90
2018-07-17T18:21:18.752Z,99.90
2018-07-17T18:23:46.945Z,99.90
2018-07-17T18:26:15.133Z,99.90
2018-07-17T18:28:43.308Z,99.90
2018-07-17T18:31:11.489Z,99.90
2018-07-17T18:33:39.664Z,99.90
2018-07-17T18:36:07.840Z,99.90
2018-07-17T18:38:36.025Z,99.90
2018-07-17T18:41:04.208Z,99.90
2018-07-17T18:43:32.408Z,99.90
2018-07-17T18:46:00.585Z,99.90
2018-07-17T18:48:28.791Z,99.90
2018-07-17T18:50:56.985Z,99.90
2018-07-17T18:53:25.206Z,99.90
2018-07-17T18:55:53.397Z,99.90
2018-07-17T18:58:21.583Z,99.90
2018-07-17T19:00:49.753Z,99.90
2018-07-17T19:03:18.038Z,99.90
2018-07-17T19:05:46.223Z,99.90
2018-07-17T19:08:14.404Z,99.90
2018-07-17T19:10:42.589Z,99.90
2018-07-17T19:13:10.788Z,99.90
2018-07-17T19:15:38.965Z,99.90
2018-07-17T19:18:07.151Z,99.90
2018-07-17T19:20:35.351Z,99.90
2018-07-17T19:23:03.520Z,99.90
2018-07-17T19:25:31.724Z,99.90
2018-07-17T19:27:59.908Z,99.90
2018-07-17T19:30:28.085Z,99.90
2018-07-17T19:32:56.342Z,99.90
2018-07-17T19:35:24.547Z,99.90
2018-07-17T19:37:52.717Z,99.90
2018-07-17T19:40:20.894Z,99.90
2018-07-17T19:42:49.086Z,99.90
2018-07-17T19:45:17.252Z,99.90
2018-07-17T19:47:45.420Z,99.90
2018-07-17T19:50:13.615Z,99.90
2018-07-17T19:52:41.819Z,99.90
2018-07-17T19:55:09.986Z,99.90
2018-07-17T19:57:38.187Z,99.90
2018-07-17T20:00:06.963Z,99.90
2018-07-17T20:02:35.168Z,99.90
2018-07-17T20:05:03.364Z,99.90
2018-07-17T20:07:31.550Z,99.90
2018-07-17T20:09:59.788Z,99.90
2018-07-17T20:12:28.005Z,99.90
2018-07-17T20:14:56.200Z,99.90
2018-07-17T20:17:24.448Z,99.90
2018-07-17T20:19:52.697Z,99.90
2018-07-17T20:22:20.930Z,99.90
2018-07-17T20:24:49.173Z,99.90
2018-07-17T20:27:17.424Z,99.90
2018-07-17T20:29:45.625Z,99.90
2018-07-17T20:32:13.991Z,99.90
2018-07-17T20:34:42.157Z,99.90
2018-07-17T20:37:10.413Z,99.90
2018-07-17T20:39:38.600Z,99.90
2018-07-17T20:42:06.801Z,99.90
2018-07-17T20:44:35.014Z,99.90
2018-07-17T20:47:03.239Z,99.90
2018-07-17T20:49:31.450Z,99.90
2018-07-17T20:51:59.677Z,99.90
2018-07-17T20:54:27.852Z,99.90
2018-07-17T20:56:56.070Z,99.90
2018-07-17T20:59:24.397Z,99.90
2018-07-17T21:01:52.589Z,99.90
2018-07-17T21:04:20.781Z,99.90
2018-07-17T21:06:48.982Z,99.90
2018-07-17T21:09:17.168Z,99.90
2018-07-17T21:11:45.366Z,99.90
2018-07-17T21:14:13.553Z,99.90
2018-07-17T21:16:41.748Z,99.90
2018-07-17T21:19:09.948Z,99.90
2018-07-17T21:21:38.161Z,99.90
2018-07-17T21:24:06.375Z,99.90
2018-07-17T21:26:34.567Z,99.90
2018-07-17T21:29:02.772Z,99.90
2018-07-17T21:31:31.050Z,99.90
2018-07-17T21:33:59.465Z,99.90
2018-07-17T21:36:27.674Z,99.90
2018-07-17T21:38:55.886Z,99.90
2018-07-17T21:41:24.077Z,99.90
2018-07-17T21:43:52.301Z,99.90
2018-07-17T21:46:20.568Z,99.90
2018-07-17T21:48:49.065Z,99.90
2018-07-17T21:51:17.279Z,99.90
2018-07-17T21:56:13.436Z,99.90
2018-07-17T21:58:41.641Z,99.90
2018-07-17T22:01:09.833Z,99.90
2018-07-17T22:03:38.056Z,99.90
2018-07-17T22:06:06.261Z,99.90
2018-07-17T22:08:34.445Z,99.90
2018-07-17T22:11:02.617Z,99.90
2018-07-17T22:13:30.796Z,99.90
2018-07-17T22:16:00.602Z,99.90
2018-07-17T22:18:29.189Z,99.90
2018-07-17T22:20:57.356Z,99.90
2018-07-17T22:23:26.488Z,99.90
2018-07-17T22:25:54.908Z,99.90
2018-07-17T22:28:23.208Z,99.90
2018-07-17T22:30:51.398Z,99.90
2018-07-17T22:33:19.597Z,99.90
2018-07-17T22:35:47.788Z,99.90
2018-07-17T22:38:16.245Z,99.90
2018-07-17T22:40:44.417Z,99.90
2018-07-17T22:43:12.585Z,99.90
2018-07-17T22:45:40.790Z,99.90
2018-07-17T22:48:08.999Z,99.90
2018-07-17T22:50:37.197Z,99.90
2018-07-17T22:53:05.407Z,99.90
2018-07-17T22:55:33.607Z,99.90
2018-07-17T22:58:01.806Z,99.90
2018-07-17T23:00:30.031Z,99.90
2018-07-17T23:02:58.230Z,99.90
2018-07-17T23:05:26.451Z,99.90
2018-07-17T23:07:54.651Z,99.90
2018-07-17T23:10:22.850Z,99.90
2018-07-17T23:12:51.038Z,99.90
2018-07-17T23:15:19.243Z,99.90
2018-07-17T23:17:47.422Z,99.90
2018-07-17T23:20:15.614Z,99.90
2018-07-17T23:22:52.157Z,99.90
2018-07-17T23:25:20.846Z,99.90
2018-07-17T23:27:49.045Z,99.90
2018-07-17T23:30:17.481Z,99.90
2018-07-17T23:32:47.309Z,99.90
2018-07-17T23:35:15.530Z,99.90
2018-07-17T23:37:43.742Z,99.90
2018-07-17T23:40:11.913Z,99.90
2018-07-17T23:42:40.305Z,99.90
2018-07-17T23:47:37.171Z,99.90
2018-07-17T23:50:05.477Z,99.90
2018-07-17T23:52:33.677Z,99.90
